Time;durP1;ratioP1;P1;durP2;ratioP2;P2;SDS_P1;SDS_P2;PMS_P1;PMS_P2;Temp;Humidity;BMP_temperature;BMP_pressure;BME280_temperature;BME280_humidity;BME280_pressure;Samples;Min_cycle;Max_cycle;Signal;HPM_P1;HPM_P2
2021/05/20 00:01:41;;;;;;;9.00;8.70;;;24.50;69.50;;;;;;3557081;40;20483;-51
2021/05/20 00:04:10;;;;;;;9.30;9.00;;;24.50;69.50;;;;;;3559619;40;20486;-50
2021/05/20 00:06:38;;;;;;;9.37;9.07;;;24.50;69.50;;;;;;3565712;40;20987;-51
2021/05/20 00:09:07;;;;;;;9.40;8.97;;;24.50;69.50;;;;;;3567923;40;20495;-53
2021/05/20 00:11:35;;;;;;;9.17;8.87;;;24.50;69.50;;;;;;3569160;40;20996;-51
2021/05/20 00:14:03;;;;;;;9.30;9.00;;;24.50;69.40;;;;;;3567599;40;20498;-49
2021/05/20 00:16:30;;;;;;;9.77;9.37;;;24.50;69.40;;;;;;3568837;40;20504;-50
2021/05/20 00:18:57;;;;;;;9.70;9.30;;;24.50;69.50;;;;;;3569114;40;20501;-51
2021/05/20 00:21:25;;;;;;;9.00;8.60;;;24.40;69.40;;;;;;3568549;40;20522;-51
2021/05/20 00:23:52;;;;;;;9.00;8.67;;;24.40;69.40;;;;;;3568498;40;20497;-54
2021/05/20 00:26:20;;;;;;;9.63;9.23;;;24.40;69.40;;;;;;3568830;40;20477;-52
2021/05/20 00:28:48;;;;;;;9.90;9.20;;;24.40;69.40;;;;;;3568152;40;20489;-51
2021/05/20 00:31:15;;;;;;;9.17;8.70;;;24.40;69.40;;;;;;3568255;40;20490;-52
2021/05/20 00:33:43;;;;;;;9.30;8.90;;;24.40;69.40;;;;;;3567200;40;20478;-51
2021/05/20 00:36:11;;;;;;;9.80;9.40;;;24.40;69.50;;;;;;3569292;40;20494;-52
2021/05/20 00:38:39;;;;;;;8.90;8.63;;;24.40;69.40;;;;;;3567887;40;20481;-53
2021/05/20 00:41:08;;;;;;;9.37;9.00;;;24.40;69.40;;;;;;3568877;40;20494;-52
2021/05/20 00:43:35;;;;;;;9.27;8.87;;;24.40;69.40;;;;;;3568288;40;20494;-51
2021/05/20 00:46:03;;;;;;;9.07;8.77;;;24.40;69.40;;;;;;3565951;40;20598;-53
2021/05/20 00:48:30;;;;;;;9.70;9.10;;;24.40;69.50;;;;;;3569415;40;20488;-52
2021/05/20 00:51:01;;;;;;;8.60;8.30;;;24.40;69.50;;;;;;3569224;40;20822;-51
2021/05/20 00:53:29;;;;;;;9.13;8.83;;;24.40;69.50;;;;;;3567371;40;20494;-51
2021/05/20 00:55:57;;;;;;;8.90;8.50;;;24.40;69.50;;;;;;3568600;40;20534;-52
2021/05/20 00:58:25;;;;;;;8.60;8.30;;;24.40;69.60;;;;;;3568045;40;20703;-50
2021/05/20 01:00:54;;;;;;;8.67;8.37;;;24.40;69.60;;;;;;3568734;40;20490;-51
2021/05/20 01:03:22;;;;;;;9.43;9.13;;;24.40;69.60;;;;;;3568312;40;20531;-51
2021/05/20 01:05:50;;;;;;;9.38;8.98;;;24.40;69.60;;;;;;3569033;40;20236;-53
2021/05/20 01:08:17;;;;;;;9.30;9.00;;;24.40;69.60;;;;;;3568897;40;20462;-50
2021/05/20 01:10:44;;;;;;;9.10;8.80;;;24.40;69.60;;;;;;3562155;40;20539;-50
2021/05/20 01:13:11;;;;;;;9.50;9.20;;;24.40;69.50;;;;;;3558330;40;20845;-51
2021/05/20 01:15:38;;;;;;;9.10;8.80;;;24.40;69.50;;;;;;3558467;40;20220;-51
2021/05/20 01:18:06;;;;;;;9.50;9.20;;;24.40;69.50;;;;;;3558200;40;20486;-50
2021/05/20 01:20:35;;;;;;;8.90;8.60;;;24.40;69.50;;;;;;3558235;40;20479;-53
2021/05/20 01:23:05;;;;;;;9.00;8.70;;;24.40;69.50;;;;;;3555479;40;20486;-53
2021/05/20 01:25:33;;;;;;;9.50;9.20;;;24.40;69.50;;;;;;3557618;40;20509;-53
2021/05/20 01:28:04;;;;;;;9.20;8.90;;;24.40;69.50;;;;;;3558153;40;20479;-52
2021/05/20 01:30:32;;;;;;;9.20;8.90;;;24.40;69.50;;;;;;3556913;40;20499;-53
2021/05/20 01:32:58;;;;;;;9.63;9.30;;;24.40;69.50;;;;;;3557640;40;21156;-50
2021/05/20 01:35:26;;;;;;;9.57;9.27;;;24.40;69.50;;;;;;3560827;40;20912;-51
2021/05/20 01:38:12;;;;;;;10.33;9.90;;;24.40;69.50;;;;;;3568093;40;20492;-49
2021/05/20 01:40:40;;;;;;;10.67;10.17;;;24.40;69.60;;;;;;3568319;40;20494;-53
2021/05/20 01:43:07;;;;;;;9.90;9.50;;;24.40;69.50;;;;;;3567908;40;20481;-49
2021/05/20 01:45:34;;;;;;;9.47;9.17;;;24.40;69.60;;;;;;3568722;40;20543;-53
2021/05/20 01:48:02;;;;;;;9.90;9.50;;;24.40;69.60;;;;;;3558906;40;20557;-52
2021/05/20 01:50:28;;;;;;;9.67;9.37;;;24.40;69.60;;;;;;3567725;40;20494;-53
2021/05/20 01:52:57;;;;;;;9.87;9.47;;;24.40;69.60;;;;;;3568108;40;20470;-52
2021/05/20 01:55:24;;;;;;;9.93;9.53;;;24.40;69.60;;;;;;3568072;40;20475;-50
2021/05/20 01:57:51;;;;;;;9.82;9.52;;;24.40;69.60;;;;;;3568660;40;20855;-53
2021/05/20 02:00:19;;;;;;;9.90;9.50;;;24.40;69.60;;;;;;3564419;40;20236;-51
2021/05/20 02:02:45;;;;;;;9.40;9.10;;;24.40;69.60;;;;;;3557358;40;20486;-52
2021/05/20 02:05:12;;;;;;;9.13;8.83;;;24.40;69.60;;;;;;3558022;40;20488;-51
2021/05/20 02:07:39;;;;;;;9.77;9.37;;;24.40;69.60;;;;;;3558389;40;20890;-50
2021/05/20 02:10:09;;;;;;;9.10;8.80;;;24.40;69.60;;;;;;3557892;40;20491;-51
2021/05/20 02:12:37;;;;;;;9.30;9.00;;;24.40;69.60;;;;;;3549206;40;20481;-50
2021/05/20 02:15:05;;;;;;;9.57;9.20;;;24.40;69.60;;;;;;3559165;40;20489;-50
2021/05/20 02:17:33;;;;;;;9.87;9.47;;;24.40;69.60;;;;;;3557740;40;20487;-50
2021/05/20 02:20:00;;;;;;;9.90;9.60;;;24.40;69.60;;;;;;3558699;40;20493;-53
2021/05/20 02:22:30;;;;;;;9.82;9.50;;;24.40;69.60;;;;;;3557806;40;20513;-51
2021/05/20 02:24:56;;;;;;;9.83;9.43;;;24.40;69.60;;;;;;3558925;40;20243;-52
2021/05/20 02:27:25;;;;;;;9.80;9.50;;;24.40;69.60;;;;;;3568040;40;20500;-50
2021/05/20 02:29:53;;;;;;;9.27;8.87;;;24.40;69.60;;;;;;3568151;40;20677;-50
2021/05/20 02:32:20;;;;;;;9.10;8.80;;;24.40;69.60;;;;;;3567839;40;20487;-51
2021/05/20 02:34:47;;;;;;;8.80;8.50;;;24.40;69.60;;;;;;3568005;40;20494;-50
2021/05/20 02:37:15;;;;;;;8.97;8.57;;;24.40;69.60;;;;;;3567552;40;20498;-52
2021/05/20 02:39:42;;;;;;;8.60;8.30;;;24.40;69.60;;;;;;3559053;40;20664;-50
2021/05/20 02:42:10;;;;;;;8.87;8.60;;;24.40;69.60;;;;;;3567675;40;20490;-53
2021/05/20 02:44:38;;;;;;;9.60;9.30;;;24.40;69.60;;;;;;3566940;40;20495;-52
2021/05/20 02:47:05;;;;;;;9.30;9.00;;;24.40;69.60;;;;;;3567528;40;20483;-52
2021/05/20 02:49:34;;;;;;;8.97;8.70;;;24.40;69.60;;;;;;3567985;40;20478;-51
2021/05/20 02:52:04;;;;;;;10.07;9.67;;;24.40;69.60;;;;;;3565605;40;20462;-52
2021/05/20 02:54:33;;;;;;;10.10;9.70;;;24.40;69.70;;;;;;3568143;40;20476;-50
2021/05/20 02:57:03;;;;;;;9.87;9.47;;;24.40;69.60;;;;;;3568679;40;20833;-50
2021/05/20 02:59:31;;;;;;;9.10;8.80;;;24.40;69.70;;;;;;3567955;40;20494;-53
2021/05/20 03:02:04;;;;;;;9.23;8.93;;;24.40;69.70;;;;;;3567464;40;20494;-49
2021/05/20 03:04:32;;;;;;;9.10;8.70;;;24.40;69.70;;;;;;3567878;40;20470;-50
2021/05/20 03:07:01;;;;;;;10.32;9.93;;;24.40;69.60;;;;;;3567802;40;20574;-51
2021/05/20 03:09:28;;;;;;;10.20;9.80;;;24.40;69.60;;;;;;3566414;40;20487;-53
2021/05/20 03:11:58;;;;;;;10.10;9.80;;;24.40;69.60;;;;;;3567544;40;20541;-50
2021/05/20 03:14:26;;;;;;;10.20;9.90;;;24.40;69.60;;;;;;3567249;40;20502;-50
2021/05/20 03:16:54;;;;;;;10.47;10.17;;;24.40;69.60;;;;;;3567292;40;20513;-51
2021/05/20 03:19:23;;;;;;;11.47;11.07;;;24.40;69.60;;;;;;3567112;40;20490;-50
2021/05/20 03:21:51;;;;;;;11.10;10.60;;;24.40;69.60;;;;;;3568435;40;20891;-50
2021/05/20 03:24:18;;;;;;;11.00;10.60;;;24.40;69.60;;;;;;3568211;40;20498;-53
2021/05/20 03:26:44;;;;;;;10.40;10.10;;;24.40;69.60;;;;;;3568101;40;20493;-52
2021/05/20 03:29:11;;;;;;;11.20;10.80;;;24.40;69.60;;;;;;3565531;40;20571;-51
2021/05/20 03:31:37;;;;;;;10.47;10.07;;;24.40;69.60;;;;;;3566332;40;20502;-53
2021/05/20 03:34:04;;;;;;;10.80;10.50;;;24.40;69.60;;;;;;3567817;40;20484;-51
2021/05/20 03:36:33;;;;;;;10.70;10.40;;;24.40;69.60;;;;;;3558360;40;20474;-52
2021/05/20 03:39:00;;;;;;;11.60;11.20;;;24.40;69.50;;;;;;3568201;40;20837;-50
2021/05/20 03:41:27;;;;;;;11.63;11.15;;;24.40;69.60;;;;;;3567396;40;20468;-49
2021/05/20 03:43:55;;;;;;;10.67;10.30;;;24.40;69.50;;;;;;3562456;40;20232;-52
2021/05/20 03:46:22;;;;;;;11.20;10.80;;;24.40;69.50;;;;;;3566323;40;20482;-52
2021/05/20 03:48:50;;;;;;;11.05;10.73;;;24.40;69.50;;;;;;3562852;40;20491;-50
2021/05/20 03:51:17;;;;;;;11.13;10.75;;;24.50;69.50;;;;;;3568942;40;20233;-50
2021/05/20 03:53:45;;;;;;;10.50;10.20;;;24.50;69.50;;;;;;3569902;40;20226;-50
2021/05/20 03:56:13;;;;;;;11.73;11.30;;;24.50;69.50;;;;;;3568464;40;20491;-51
2021/05/20 03:58:39;;;;;;;11.40;11.00;;;24.50;69.40;;;;;;3559270;40;20906;-50
2021/05/20 04:01:07;;;;;;;11.60;11.20;;;24.50;69.40;;;;;;3559544;40;20518;-50
2021/05/20 04:03:34;;;;;;;11.70;11.30;;;24.50;69.40;;;;;;3559039;40;20510;-50
2021/05/20 04:06:02;;;;;;;11.57;11.17;;;24.60;69.50;;;;;;3551912;40;20510;-50
2021/05/20 04:08:29;;;;;;;12.50;12.10;;;24.50;69.40;;;;;;3548578;40;20489;-49
2021/05/20 04:11:10;;;;;;;12.13;11.73;;;24.60;69.40;;;;;;3549057;40;20491;-51
2021/05/20 04:13:39;;;;;;;12.00;11.60;;;24.60;69.40;;;;;;3548458;40;20501;-52
2021/05/20 04:16:08;;;;;;;11.40;11.10;;;24.60;69.40;;;;;;3547944;40;20562;-50
2021/05/20 04:18:36;;;;;;;11.87;11.43;;;24.60;69.40;;;;;;3547042;40;20487;-51
2021/05/20 04:21:03;;;;;;;12.07;11.70;;;24.60;69.30;;;;;;3550873;40;20485;-52
2021/05/20 04:23:29;;;;;;;12.00;11.60;;;24.60;69.20;;;;;;3556362;40;20503;-51
2021/05/20 04:25:57;;;;;;;12.47;12.07;;;24.70;69.30;;;;;;3561115;40;20899;-52
2021/05/20 04:28:25;;;;;;;12.20;11.70;;;24.70;69.20;;;;;;3567635;40;20491;-53
2021/05/20 04:30:53;;;;;;;12.10;11.70;;;24.70;69.20;;;;;;3565938;40;20506;-53
2021/05/20 04:33:20;;;;;;;12.30;11.90;;;24.70;69.30;;;;;;3566600;40;20493;-53
2021/05/20 04:35:47;;;;;;;12.40;12.00;;;24.70;69.20;;;;;;3566392;40;20487;-53
2021/05/20 04:38:13;;;;;;;12.40;12.00;;;24.70;69.10;;;;;;3569229;40;20550;-52
2021/05/20 04:40:41;;;;;;;12.37;11.80;;;24.80;69.20;;;;;;3564089;40;20499;-52
2021/05/20 04:43:09;;;;;;;11.70;11.40;;;24.80;69.20;;;;;;3565657;40;20865;-52
2021/05/20 04:45:37;;;;;;;12.43;12.03;;;24.80;69.20;;;;;;3565890;40;20860;-51
2021/05/20 04:48:05;;;;;;;12.23;11.73;;;24.80;69.20;;;;;;3564128;40;20503;-53
2021/05/20 04:50:32;;;;;;;12.43;12.03;;;24.80;69.20;;;;;;3557715;40;20494;-53
2021/05/20 04:53:00;;;;;;;12.63;12.20;;;24.80;69.10;;;;;;3552692;40;20498;-55
2021/05/20 04:55:27;;;;;;;12.50;12.10;;;24.80;69.10;;;;;;3554399;40;20848;-55
2021/05/20 04:57:55;;;;;;;12.23;11.83;;;24.80;69.10;;;;;;3553648;40;20487;-52
2021/05/20 05:00:23;;;;;;;12.60;12.20;;;24.80;69.00;;;;;;3551548;40;20489;-54
2021/05/20 05:02:52;;;;;;;11.70;11.40;;;24.80;68.90;;;;;;3551473;40;20925;-55
2021/05/20 05:05:19;;;;;;;12.10;11.70;;;24.90;69.00;;;;;;3552009;40;20525;-53
2021/05/20 05:07:47;;;;;;;11.93;11.53;;;24.90;69.00;;;;;;3552635;40;20492;-55
2021/05/20 05:10:14;;;;;;;12.03;11.60;;;24.90;68.90;;;;;;3543047;40;20497;-52
2021/05/20 05:12:40;;;;;;;12.20;11.80;;;24.90;68.90;;;;;;3548786;40;20481;-53
2021/05/20 05:15:08;;;;;;;12.53;12.13;;;24.90;68.90;;;;;;3550318;40;20479;-53
2021/05/20 05:17:35;;;;;;;12.30;11.90;;;24.90;69.00;;;;;;3540861;40;20469;-52
2021/05/20 05:20:02;;;;;;;12.97;12.47;;;25.00;69.00;;;;;;3548798;40;20502;-54
2021/05/20 05:22:32;;;;;;;12.10;11.70;;;25.00;69.00;;;;;;3549024;40;20493;-53
2021/05/20 05:25:00;;;;;;;11.80;11.40;;;25.00;68.90;;;;;;3540505;40;20495;-55
2021/05/20 05:27:27;;;;;;;12.23;11.73;;;25.00;68.90;;;;;;3539170;40;20503;-55
2021/05/20 05:29:54;;;;;;;12.60;12.17;;;25.00;68.90;;;;;;3540386;40;20971;-55
2021/05/20 05:32:23;;;;;;;12.63;12.20;;;25.00;68.90;;;;;;3545224;40;20494;-54
2021/05/20 05:34:50;;;;;;;11.00;10.70;;;25.00;68.90;;;;;;3543852;40;20497;-52
2021/05/20 05:37:18;;;;;;;11.20;10.70;;;25.00;68.90;;;;;;3548952;40;20502;-53
2021/05/20 05:39:46;;;;;;;10.77;10.37;;;25.00;69.00;;;;;;3557603;40;20500;-55
2021/05/20 05:42:14;;;;;;;11.35;10.95;;;25.00;69.00;;;;;;3547522;40;21192;-54
2021/05/20 05:44:41;;;;;;;10.63;10.30;;;25.00;69.00;;;;;;3555557;40;20331;-56
2021/05/20 05:47:08;;;;;;;11.23;10.83;;;25.00;68.90;;;;;;3555122;40;20482;-55
2021/05/20 05:49:40;;;;;;;10.80;10.50;;;25.00;69.00;;;;;;3554678;40;20477;-56
2021/05/20 05:52:09;;;;;;;11.33;10.93;;;25.00;68.90;;;;;;3555250;40;20476;-53
2021/05/20 05:54:39;;;;;;;11.50;11.20;;;25.00;68.90;;;;;;3553689;40;20488;-55
2021/05/20 05:57:07;;;;;;;11.30;10.90;;;25.00;68.90;;;;;;3552739;40;20487;-55
2021/05/20 05:59:33;;;;;;;11.00;10.60;;;24.90;68.90;;;;;;3546994;40;20506;-55
2021/05/20 06:02:01;;;;;;;12.23;11.37;;;24.90;69.00;;;;;;3541274;40;20531;-54
2021/05/20 06:04:30;;;;;;;11.80;10.93;;;24.90;69.20;;;;;;3532777;40;20500;-54
2021/05/20 06:07:01;;;;;;;12.03;11.43;;;24.90;69.30;;;;;;3537669;40;20813;-55
2021/05/20 06:09:29;;;;;;;11.10;10.60;;;24.90;69.30;;;;;;3535772;40;21213;-54
2021/05/20 06:11:58;;;;;;;11.65;11.07;;;24.90;69.40;;;;;;3530314;40;20748;-55
2021/05/20 06:14:24;;;;;;;12.33;11.73;;;24.90;69.60;;;;;;3533254;40;20244;-54
2021/05/20 06:16:51;;;;;;;11.87;11.17;;;24.90;69.60;;;;;;3524684;40;21303;-55
2021/05/20 06:19:18;;;;;;;11.70;11.10;;;24.90;69.80;;;;;;3536689;40;20847;-55
2021/05/20 06:21:45;;;;;;;11.87;11.17;;;24.90;69.90;;;;;;3539070;40;20494;-55
2021/05/20 06:24:15;;;;;;;12.10;11.27;;;24.90;70.10;;;;;;3531575;40;20819;-57
2021/05/20 06:26:42;;;;;;;12.90;12.00;;;24.90;70.90;;;;;;3532578;40;21353;-57
2021/05/20 06:29:10;;;;;;;12.20;11.37;;;24.90;70.20;;;;;;3538858;40;20490;-57
2021/05/20 06:31:37;;;;;;;11.10;10.40;;;24.90;70.40;;;;;;3536948;40;20859;-57
2021/05/20 06:34:04;;;;;;;11.93;11.00;;;24.90;70.50;;;;;;3539068;40;20491;-58
2021/05/20 06:36:32;;;;;;;11.37;10.77;;;24.90;70.50;;;;;;3539258;40;20494;-57
2021/05/20 06:38:58;;;;;;;11.83;11.00;;;24.90;70.70;;;;;;3548892;40;20510;-57
2021/05/20 06:41:25;;;;;;;12.27;11.40;;;24.90;70.80;;;;;;3547903;40;20499;-56
2021/05/20 06:43:53;;;;;;;11.60;11.10;;;24.90;70.90;;;;;;3547368;40;20784;-57
2021/05/20 06:46:24;;;;;;;12.20;11.53;;;24.90;70.90;;;;;;3540080;40;20496;-58
2021/05/20 06:48:51;;;;;;;12.20;11.47;;;24.90;71.00;;;;;;3545403;40;20477;-57
2021/05/20 06:51:18;;;;;;;10.80;10.23;;;24.90;71.80;;;;;;3546913;40;20549;-55
2021/05/20 06:53:47;;;;;;;11.30;10.60;;;24.90;71.10;;;;;;3540312;40;20483;-57
2021/05/20 06:56:20;;;;;;;12.10;11.20;;;24.90;71.20;;;;;;3550476;40;20486;-57
2021/05/20 07:01:34;;;;;;;11.50;10.90;;;24.90;71.30;;;;;;3537397;40;20679;-56
2021/05/20 07:04:01;;;;;;;11.13;10.57;;;24.80;71.30;;;;;;3542740;40;20487;-56
2021/05/20 07:06:29;;;;;;;11.70;11.00;;;24.80;71.50;;;;;;3537752;40;20545;-56
2021/05/20 07:08:55;;;;;;;11.30;10.70;;;24.80;71.50;;;;;;3543849;40;20502;-56
2021/05/20 07:11:22;;;;;;;11.47;10.77;;;24.80;71.50;;;;;;3531939;40;20494;-56
2021/05/20 07:13:50;;;;;;;11.63;10.63;;;24.80;71.50;;;;;;3547835;40;20490;-56
2021/05/20 07:16:25;;;;;;;11.20;10.50;;;24.80;71.50;;;;;;3547467;40;20491;-57
2021/05/20 07:18:53;;;;;;;11.57;10.77;;;24.80;71.50;;;;;;3547874;40;20485;-54
2021/05/20 07:21:21;;;;;;;11.63;10.87;;;24.80;71.50;;;;;;3539709;40;20235;-54
2021/05/20 07:23:48;;;;;;;11.37;10.87;;;24.80;71.60;;;;;;3543849;40;20508;-54
2021/05/20 07:26:18;;;;;;;12.63;11.80;;;24.80;71.60;;;;;;3540596;40;20574;-55
2021/05/20 07:28:44;;;;;;;11.97;11.27;;;24.80;71.60;;;;;;3543845;40;20489;-57
2021/05/20 07:31:12;;;;;;;11.50;11.00;;;24.80;71.60;;;;;;3542570;40;20485;-58
2021/05/20 07:33:39;;;;;;;12.10;11.20;;;24.80;71.70;;;;;;3544574;40;20481;-57
2021/05/20 07:36:07;;;;;;;11.57;10.87;;;24.80;71.70;;;;;;3547589;40;20494;-58
2021/05/20 07:38:42;;;;;;;12.40;11.70;;;24.80;71.80;;;;;;3548270;40;20497;-57
2021/05/20 07:41:12;;;;;;;12.10;11.30;;;24.80;71.80;;;;;;3541263;40;20970;-57
2021/05/20 07:43:39;;;;;;;11.73;11.02;;;24.80;71.80;;;;;;3522399;40;20510;-58
2021/05/20 07:46:09;;;;;;;11.63;10.93;;;24.80;71.80;;;;;;3547572;40;20490;-57
2021/05/20 07:48:37;;;;;;;10.73;10.20;;;24.80;71.80;;;;;;3536833;40;20485;-57
2021/05/20 07:51:07;;;;;;;10.40;9.90;;;24.80;71.80;;;;;;3547815;40;20500;-57
2021/05/20 07:53:35;;;;;;;12.27;11.40;;;24.80;71.90;;;;;;3550468;40;20502;-58
2021/05/20 07:56:03;;;;;;;11.23;10.60;;;24.80;72.10;;;;;;3540704;40;21329;-57
2021/05/20 07:58:32;;;;;;;10.50;9.63;;;24.80;72.20;;;;;;3547046;40;20226;-58
2021/05/20 08:01:01;;;;;;;11.13;10.37;;;24.80;72.20;;;;;;3545436;40;20791;-57
2021/05/20 08:03:31;;;;;;;11.17;10.60;;;24.70;72.20;;;;;;3543573;40;20487;-57
2021/05/20 08:06:04;;;;;;;10.67;10.07;;;24.70;72.20;;;;;;3541082;40;20649;-57
2021/05/20 08:08:36;;;;;;;10.90;10.33;;;24.70;72.20;;;;;;3544984;40;20485;-58
2021/05/20 08:11:04;;;;;;;10.75;10.10;;;24.70;72.20;;;;;;3550187;40;20565;-58
2021/05/20 08:13:33;;;;;;;10.70;10.00;;;24.70;72.30;;;;;;3545968;40;20222;-57
2021/05/20 08:16:01;;;;;;;10.98;10.32;;;24.70;72.30;;;;;;3546477;40;20312;-57
2021/05/20 08:18:32;;;;;;;11.27;10.53;;;24.70;72.40;;;;;;3547667;40;20231;-57
2021/05/20 08:21:00;;;;;;;10.60;10.00;;;24.70;72.40;;;;;;3547796;40;20571;-57
2021/05/20 08:23:32;;;;;;;10.95;10.25;;;24.70;72.40;;;;;;3547818;40;20493;-54
2021/05/20 08:26:01;;;;;;;10.57;9.90;;;24.70;72.50;;;;;;3542337;40;20273;-56
2021/05/20 08:28:29;;;;;;;11.13;10.53;;;24.70;72.50;;;;;;3549537;40;20585;-57
2021/05/20 08:30:58;;;;;;;10.03;9.53;;;24.70;72.70;;;;;;3550007;40;20922;-57
2021/05/20 08:33:26;;;;;;;10.83;10.20;;;24.70;72.90;;;;;;3539963;40;20585;-57
2021/05/20 08:35:54;;;;;;;10.87;10.10;;;24.70;72.90;;;;;;3543458;40;20489;-57
2021/05/20 08:38:23;;;;;;;11.20;10.50;;;24.60;72.90;;;;;;3558434;40;20915;-57
2021/05/20 08:40:50;;;;;;;10.90;10.20;;;24.60;72.80;;;;;;3558928;40;20488;-57
2021/05/20 08:43:19;;;;;;;10.37;9.80;;;24.60;72.90;;;;;;3556294;40;20490;-58
2021/05/20 08:45:48;;;;;;;11.13;10.47;;;24.60;72.90;;;;;;3549284;40;20510;-55
2021/05/20 08:48:15;;;;;;;11.30;10.60;;;24.60;72.90;;;;;;3538836;40;20506;-57
2021/05/20 08:50:42;;;;;;;10.70;10.20;;;24.60;73.00;;;;;;3529386;40;20483;-57
2021/05/20 08:53:10;;;;;;;10.70;10.10;;;24.60;72.90;;;;;;3534102;40;20487;-57
2021/05/20 08:55:38;;;;;;;11.60;10.90;;;24.60;72.90;;;;;;3540311;40;20920;-58
2021/05/20 08:58:10;;;;;;;12.13;11.53;;;24.60;72.80;;;;;;3541105;40;20582;-56
2021/05/20 09:00:40;;;;;;;11.67;10.80;;;24.60;72.80;;;;;;3536277;40;20486;-57
2021/05/20 09:03:09;;;;;;;12.30;11.40;;;24.60;72.80;;;;;;3538743;40;20479;-57
2021/05/20 09:05:36;;;;;;;11.40;10.80;;;24.60;72.80;;;;;;3528977;40;20498;-56
2021/05/20 09:08:06;;;;;;;10.87;10.37;;;24.60;72.80;;;;;;3548838;40;20820;-58
2021/05/20 09:10:35;;;;;;;10.40;9.90;;;24.70;73.00;;;;;;3532564;40;20500;-58
2021/05/20 09:13:03;;;;;;;11.00;10.30;;;24.70;73.00;;;;;;3529168;40;20836;-57
2021/05/20 09:15:32;;;;;;;11.47;10.60;;;24.70;73.10;;;;;;3527257;40;20494;-57
2021/05/20 09:18:11;;;;;;;12.20;11.40;;;24.70;73.10;;;;;;3532396;40;20501;-57
2021/05/20 09:20:40;;;;;;;12.17;11.50;;;24.70;73.10;;;;;;3526848;40;20810;-58
2021/05/20 09:23:10;;;;;;;12.37;11.63;;;24.70;73.10;;;;;;3534820;40;20962;-57
2021/05/20 09:25:38;;;;;;;11.50;10.90;;;24.70;73.10;;;;;;3534123;40;20936;-57
2021/05/20 09:28:07;;;;;;;11.23;10.73;;;24.70;73.20;;;;;;3529589;40;20928;-57
2021/05/20 09:30:34;;;;;;;11.57;11.07;;;24.70;73.20;;;;;;3528700;40;20492;-57
2021/05/20 09:33:06;;;;;;;12.50;11.70;;;24.70;73.20;;;;;;3532057;40;21075;-57
2021/05/20 09:35:38;;;;;;;11.60;10.90;;;24.70;73.30;;;;;;3545522;40;20505;-56
2021/05/20 09:38:06;;;;;;;11.93;11.33;;;24.70;73.30;;;;;;3547719;40;20503;-57
2021/05/20 09:40:37;;;;;;;11.27;10.80;;;24.70;73.40;;;;;;3543482;40;20487;-55
2021/05/20 09:43:17;;;;;;;11.63;10.83;;;24.70;73.30;;;;;;3539642;40;20521;-53
2021/05/20 09:45:45;;;;;;;11.70;10.97;;;24.60;73.20;;;;;;3536564;40;20492;-55
2021/05/20 09:48:13;;;;;;;11.60;10.83;;;24.60;73.20;;;;;;3543984;40;20490;-54
2021/05/20 09:50:43;;;;;;;12.20;11.03;;;24.60;73.20;;;;;;3547738;40;20498;-51
2021/05/20 09:53:14;;;;;;;11.47;10.87;;;24.60;73.30;;;;;;3543020;40;20498;-53
2021/05/20 09:55:50;;;;;;;10.77;10.27;;;24.60;73.40;;;;;;3535305;40;20506;-54
2021/05/20 09:58:18;;;;;;;11.57;10.97;;;24.60;73.40;;;;;;3543783;40;20487;-55
2021/05/20 10:00:45;;;;;;;11.65;11.02;;;24.60;73.30;;;;;;3532091;40;20500;-58
2021/05/20 10:03:14;;;;;;;11.30;10.80;;;24.60;73.40;;;;;;3526309;40;20311;-57
2021/05/20 10:05:44;;;;;;;11.10;10.60;;;24.60;73.40;;;;;;3526646;40;20787;-57
2021/05/20 10:08:12;;;;;;;11.27;10.77;;;24.60;73.30;;;;;;3537550;40;20576;-57
2021/05/20 10:10:42;;;;;;;12.27;11.00;;;24.60;73.30;;;;;;3538339;40;20486;-55
2021/05/20 10:13:11;;;;;;;11.65;10.95;;;24.60;73.30;;;;;;3538666;40;20896;-56
2021/05/20 10:15:40;;;;;;;11.67;10.97;;;24.60;73.30;;;;;;3536337;40;20239;-56
2021/05/20 10:18:08;;;;;;;11.93;11.23;;;24.60;73.30;;;;;;3526560;40;20489;-56
2021/05/20 10:20:41;;;;;;;11.52;10.82;;;24.60;73.40;;;;;;3538061;40;20245;-57
2021/05/20 10:23:12;;;;;;;11.40;10.80;;;24.60;73.50;;;;;;3525725;40;20224;-57
2021/05/20 10:25:40;;;;;;;11.10;10.60;;;24.70;73.80;;;;;;3537569;40;20525;-55
2021/05/20 10:28:09;;;;;;;12.50;11.80;;;24.60;73.30;;;;;;3536686;40;20485;-52
2021/05/20 10:30:38;;;;;;;12.00;11.40;;;24.60;73.30;;;;;;3537516;40;20803;-55
2021/05/20 10:33:07;;;;;;;12.63;11.93;;;24.60;73.30;;;;;;3538384;40;20311;-53
2021/05/20 10:35:41;;;;;;;11.63;10.83;;;24.60;73.40;;;;;;3527231;40;21180;-56
2021/05/20 10:38:11;;;;;;;11.50;10.90;;;24.60;73.40;;;;;;3536014;40;21392;-58
2021/05/20 10:40:38;;;;;;;11.70;11.10;;;24.60;73.50;;;;;;3547957;40;20505;-57
2021/05/20 10:43:14;;;;;;;11.50;11.00;;;24.60;73.40;;;;;;3547000;40;21067;-55
2021/05/20 10:45:59;;;;;;;11.37;10.83;;;24.60;73.50;;;;;;3547062;40;20497;-56
2021/05/20 10:48:27;;;;;;;12.00;11.50;;;24.60;73.50;;;;;;3548873;40;20489;-57
2021/05/20 10:51:16;;;;;;;11.80;11.10;;;24.60;73.50;;;;;;3544215;40;20491;-57
2021/05/20 10:54:07;;;;;;;11.63;11.13;;;24.60;73.60;;;;;;3538754;40;20871;-57
2021/05/20 10:56:58;;;;;;;11.37;10.77;;;24.60;73.60;;;;;;3537928;40;21273;-57
2021/05/20 10:59:44;;;;;;;11.47;10.87;;;24.60;73.60;;;;;;3538440;40;20581;-57
2021/05/20 11:02:37;;;;;;;11.30;10.80;;;24.60;73.50;;;;;;3543436;40;20557;-57
2021/05/20 11:05:28;;;;;;;11.60;11.10;;;24.60;73.50;;;;;;3536390;40;20487;-55
2021/05/20 11:07:55;;;;;;;11.93;11.33;;;24.60;73.60;;;;;;3539427;40;20493;-57
2021/05/20 11:10:36;;;;;;;11.57;10.93;;;24.60;73.60;;;;;;3540927;40;20482;-57
2021/05/20 11:13:05;;;;;;;11.20;10.50;;;24.60;73.60;;;;;;3533809;40;20494;-56
2021/05/20 11:15:33;;;;;;;10.80;10.30;;;24.60;73.70;;;;;;3522629;40;20485;-56
2021/05/20 11:18:31;;;;;;;11.50;10.83;;;24.60;73.70;;;;;;3529521;40;20224;-57
2021/05/20 11:20:58;;;;;;;10.90;10.33;;;24.60;73.80;;;;;;3536341;40;20782;-58
2021/05/20 11:23:33;;;;;;;11.30;10.80;;;24.60;73.70;;;;;;3541427;40;20583;-58
2021/05/20 11:26:16;;;;;;;12.03;11.13;;;24.60;73.80;;;;;;3539276;40;20481;-57
2021/05/20 11:28:48;;;;;;;11.90;11.30;;;24.60;73.90;;;;;;3540187;40;20961;-57
2021/05/20 11:31:17;;;;;;;12.33;11.53;;;24.60;73.90;;;;;;3541529;40;21127;-55
2021/05/20 11:33:52;;;;;;;11.40;10.90;;;24.60;73.90;;;;;;3538217;40;20550;-55
2021/05/20 11:36:20;;;;;;;11.10;10.50;;;24.60;74.00;;;;;;3538855;40;20476;-56
2021/05/20 11:38:55;;;;;;;11.27;10.57;;;24.60;74.00;;;;;;3539773;40;20740;-53
2021/05/20 11:41:23;;;;;;;12.20;11.20;;;24.60;74.00;;;;;;3536982;40;20502;-53
2021/05/20 11:44:01;;;;;;;10.70;10.20;;;24.60;74.00;;;;;;3522374;40;20972;-52
2021/05/20 11:46:29;;;;;;;11.70;10.73;;;24.60;74.10;;;;;;3547855;40;20509;-54
2021/05/20 11:49:04;;;;;;;11.60;10.57;;;24.60;74.00;;;;;;3529784;40;20874;-54
2021/05/20 11:51:56;;;;;;;11.32;10.70;;;24.60;74.00;;;;;;3544714;40;20263;-55
2021/05/20 11:54:30;;;;;;;10.93;10.32;;;24.60;74.10;;;;;;3550334;40;20401;-54
2021/05/20 11:56:59;;;;;;;10.63;10.10;;;24.60;74.10;;;;;;3550553;40;20562;-54
2021/05/20 11:59:47;;;;;;;10.93;10.43;;;24.60;74.10;;;;;;3541530;40;20717;-56
2021/05/20 12:02:16;;;;;;;11.77;11.17;;;24.60;74.10;;;;;;3540219;40;20540;-52
2021/05/20 12:04:44;;;;;;;10.80;10.20;;;24.60;74.00;;;;;;3539802;40;20493;-52
2021/05/20 12:07:22;;;;;;;11.67;11.07;;;24.50;73.90;;;;;;3543309;40;21190;-54
2021/05/20 12:09:50;;;;;;;11.07;10.47;;;24.50;74.00;;;;;;3540331;40;20495;-54
2021/05/20 12:12:19;;;;;;;10.50;9.60;;;24.50;74.00;;;;;;3539833;40;20490;-55
2021/05/20 12:14:48;;;;;;;10.30;9.80;;;24.50;74.00;;;;;;3530174;40;21031;-52
2021/05/20 12:17:20;;;;;;;10.90;10.30;;;24.50;74.00;;;;;;3531088;40;20493;-54
2021/05/20 12:19:49;;;;;;;10.90;10.30;;;24.50;74.00;;;;;;3537626;40;20551;-58
2021/05/20 12:22:18;;;;;;;10.47;10.00;;;24.50;74.00;;;;;;3538669;40;20485;-58
2021/05/20 12:24:46;;;;;;;10.93;10.23;;;24.50;74.00;;;;;;3535071;40;20869;-57
2021/05/20 12:27:16;;;;;;;11.10;10.50;;;24.50;74.10;;;;;;3538604;40;21462;-56
2021/05/20 12:29:46;;;;;;;10.68;10.07;;;24.50;74.00;;;;;;3539583;40;20494;-57
2021/05/20 12:32:34;;;;;;;11.90;11.17;;;24.50;74.10;;;;;;3540015;40;20983;-57
2021/05/20 12:35:10;;;;;;;10.67;10.23;;;24.50;74.10;;;;;;3441781;40;20478;-58
2021/05/20 12:37:43;;;;;;;12.40;11.80;;;24.50;74.10;;;;;;3537570;40;20511;-58
2021/05/20 12:40:12;;;;;;;12.30;11.50;;;24.50;74.10;;;;;;3518059;40;20581;-57
2021/05/20 12:42:40;;;;;;;11.50;11.00;;;24.50;74.20;;;;;;3542142;40;20488;-57
2021/05/20 12:45:10;;;;;;;12.30;11.50;;;24.50;74.20;;;;;;3541686;40;20492;-58
2021/05/20 12:47:47;;;;;;;12.60;11.90;;;24.50;74.20;;;;;;3530678;40;20481;-56